createdAt,value
2019-03-12T00:00:49.156Z,4.67
2019-03-12T00:03:52.969Z,3.47
2019-03-12T00:06:56.772Z,4.83
2019-03-12T00:10:00.572Z,6.20
2019-03-12T00:13:04.472Z,4.10
2019-03-12T00:16:08.346Z,6.80
2019-03-12T00:19:12.149Z,4.53
2019-03-12T00:22:15.952Z,3.27
2019-03-12T00:25:19.757Z,6.90
2019-03-12T00:28:23.725Z,5.47
2019-03-12T00:31:27.619Z,6.87
2019-03-12T00:34:31.411Z,6.07
2019-03-12T00:37:35.322Z,3.27
2019-03-12T00:40:39.143Z,5.83
2019-03-12T00:43:42.963Z,8.17
2019-03-12T00:46:46.763Z,4.00
2019-03-12T00:49:50.651Z,6.03
2019-03-12T00:52:54.627Z,3.50
2019-03-12T00:55:58.506Z,3.97
2019-03-12T00:59:02.318Z,4.50
2019-03-12T01:02:15.918Z,4.93
2019-03-12T01:05:19.798Z,3.07
2019-03-12T01:08:23.640Z,4.97
2019-03-12T01:11:27.535Z,7.73
2019-03-12T01:14:31.350Z,7.00
2019-03-12T01:17:35.138Z,5.93
2019-03-12T01:20:38.963Z,4.43
2019-03-12T01:23:42.798Z,8.60
2019-03-12T01:26:46.664Z,6.00
2019-03-12T01:29:50.548Z,6.83
2019-03-12T01:32:54.366Z,12.73
2019-03-12T01:35:58.200Z,4.07
2019-03-12T01:39:02.002Z,5.27
2019-03-12T01:42:05.968Z,7.13
2019-03-12T01:45:11.320Z,7.53
2019-03-12T01:48:15.137Z,9.33
2019-03-12T01:51:18.965Z,6.10
2019-03-12T01:54:22.764Z,6.43
2019-03-12T01:57:26.592Z,6.03
2019-03-12T02:00:30.400Z,8.47
2019-03-12T02:03:34.309Z,7.60
2019-03-12T02:06:38.125Z,6.70
2019-03-12T02:09:42.049Z,6.83
2019-03-12T02:12:45.910Z,4.07
2019-03-12T02:15:49.732Z,13.23
2019-03-12T02:18:53.523Z,7.53
2019-03-12T02:21:57.415Z,8.50
2019-03-12T02:25:01.251Z,7.60
2019-03-12T02:28:05.784Z,9.10
2019-03-12T02:31:09.662Z,8.60
2019-03-12T02:34:13.619Z,7.90
2019-03-12T02:37:17.421Z,6.53
2019-03-12T02:40:21.327Z,8.33
2019-03-12T02:43:25.136Z,10.80
2019-03-12T02:46:28.967Z,8.73
2019-03-12T02:49:32.826Z,6.77
2019-03-12T02:52:36.645Z,6.07
2019-03-12T02:55:40.511Z,9.77
2019-03-12T02:58:44.297Z,8.93
2019-03-12T03:01:48.099Z,7.03
2019-03-12T03:04:54.220Z,10.53
2019-03-12T03:08:00.364Z,7.47
2019-03-12T03:11:04.271Z,7.93
2019-03-12T03:14:43.304Z,5.80
2019-03-12T03:17:47.202Z,5.00
2019-03-12T03:20:51.112Z,4.30
2019-03-12T03:23:54.905Z,9.47
2019-03-12T03:26:58.824Z,5.00
2019-03-12T03:30:02.718Z,3.77
2019-03-12T03:33:06.638Z,9.53
2019-03-12T03:36:10.479Z,3.00
2019-03-12T03:39:14.355Z,9.27
2019-03-12T03:42:18.522Z,8.77
2019-03-12T03:45:22.501Z,5.00
2019-03-12T03:48:26.321Z,7.50
2019-03-12T03:51:30.157Z,5.33
2019-03-12T03:54:33.968Z,2.43
2019-03-12T03:57:37.853Z,8.30
2019-03-12T04:00:41.745Z,10.23
2019-03-12T04:03:45.631Z,7.80
2019-03-12T04:06:49.451Z,9.90
2019-03-12T04:09:53.373Z,14.27
2019-03-12T04:12:57.274Z,11.03
2019-03-12T04:16:01.144Z,7.30
2019-03-12T04:19:05.018Z,10.00
2019-03-12T04:22:08.841Z,5.57
2019-03-12T04:25:13.042Z,6.53
2019-03-12T04:28:16.823Z,5.77
2019-03-12T04:31:20.631Z,7.60
2019-03-12T04:34:36.821Z,5.37
2019-03-12T04:37:40.666Z,5.47
2019-03-12T04:40:44.499Z,11.10
2019-03-12T04:43:48.320Z,5.43
2019-03-12T04:46:52.227Z,8.07
2019-03-12T04:49:56.042Z,6.17
2019-03-12T04:52:59.861Z,5.33
2019-03-12T04:56:03.672Z,7.97
2019-03-12T04:59:07.632Z,9.27
2019-03-12T05:02:11.458Z,11.37
2019-03-12T05:05:15.438Z,9.40
2019-03-12T05:08:19.336Z,5.17
2019-03-12T05:11:23.243Z,11.47
2019-03-12T05:14:31.627Z,7.70
2019-03-12T05:17:35.976Z,8.77
2019-03-12T05:20:39.781Z,12.50
2019-03-12T05:23:43.668Z,5.37
2019-03-12T05:26:47.468Z,8.17
2019-03-12T05:29:51.291Z,6.90
2019-03-12T05:32:55.096Z,4.77
2019-03-12T05:35:59.001Z,6.17
2019-03-12T05:39:03.741Z,13.33
2019-03-12T05:42:07.580Z,23.77
2019-03-12T05:45:11.900Z,16.43
2019-03-12T05:48:15.726Z,11.03
2019-03-12T05:51:19.516Z,19.07
2019-03-12T05:54:23.421Z,12.67
2019-03-12T05:57:27.217Z,14.97
2019-03-12T06:00:31.034Z,8.97
2019-03-12T06:03:34.825Z,21.73
2019-03-12T06:06:38.721Z,19.17
2019-03-12T06:09:42.560Z,19.37
2019-03-12T06:12:46.375Z,8.73
2019-03-12T06:15:53.118Z,10.07
2019-03-12T06:18:55.794Z,8.70
2019-03-12T06:21:59.682Z,13.77
2019-03-12T06:25:03.580Z,32.40
2019-03-12T06:28:07.385Z,10.77
2019-03-12T06:31:19.561Z,19.83
2019-03-12T06:34:31.194Z,10.13
2019-03-12T06:37:41.120Z,13.03
2019-03-12T06:41:03.041Z,20.63
2019-03-12T06:44:15.880Z,15.13
2019-03-12T06:47:53.820Z,12.73
2019-03-12T06:51:13.498Z,22.00
2019-03-12T06:54:36.326Z,15.40
2019-03-12T06:58:22.281Z,25.93
2019-03-12T07:01:43.632Z,29.13
2019-03-12T07:05:03.661Z,17.90
2019-03-12T07:08:38.618Z,21.00
2019-03-12T07:11:52.774Z,18.17
2019-03-12T07:15:15.562Z,23.97
2019-03-12T07:18:32.318Z,15.10
2019-03-12T07:21:58.609Z,15.87
2019-03-12T07:25:24.614Z,22.00
2019-03-12T07:28:50.196Z,28.47
2019-03-12T07:31:59.097Z,26.40
2019-03-12T07:35:27.894Z,27.50
2019-03-12T07:39:08.961Z,26.30
2019-03-12T07:42:30.418Z,19.80
2019-03-12T07:45:52.641Z,20.27
2019-03-12T07:49:08.749Z,18.60
2019-03-12T07:52:46.906Z,21.23
2019-03-12T07:56:24.791Z,22.93
2019-03-12T08:00:02.661Z,23.10
2019-03-12T08:03:30.252Z,19.70
2019-03-12T08:06:41.503Z,20.63
2019-03-12T08:09:55.970Z,21.27
2019-03-12T08:13:27.709Z,30.77
2019-03-12T08:17:02.553Z,17.13
2019-03-12T08:20:35.178Z,19.00
2019-03-12T08:24:13.899Z,19.33
2019-03-12T08:27:36.937Z,18.83
2019-03-12T08:30:45.648Z,13.23
2019-03-12T08:33:59.221Z,12.63
2019-03-12T08:37:25.051Z,19.47
2019-03-12T08:40:52.515Z,12.60
2019-03-12T08:44:08.184Z,12.93
2019-03-12T08:47:18.423Z,13.83
2019-03-12T08:50:34.013Z,14.23
2019-03-12T08:53:52.046Z,20.33
2019-03-12T08:57:14.851Z,19.27
2019-03-12T09:00:40.724Z,15.77
2019-03-12T09:04:01.130Z,13.93
2019-03-12T09:07:30.282Z,11.43
2019-03-12T09:10:43.663Z,11.33
2019-03-12T09:14:05.167Z,11.40
2019-03-12T09:17:18.755Z,13.30
2019-03-12T09:21:00.052Z,10.90
2019-03-12T09:24:31.629Z,16.13
2019-03-12T09:27:54.674Z,14.77
2019-03-12T09:31:10.543Z,13.80
2019-03-12T09:34:23.051Z,15.93
2019-03-12T09:37:40.254Z,18.13
2019-03-12T09:41:14.993Z,18.50
2019-03-12T09:44:37.818Z,17.60
2019-03-12T09:48:00.640Z,14.40
2019-03-12T09:51:09.334Z,11.63
2019-03-12T09:54:29.842Z,10.43
2019-03-12T09:57:53.593Z,15.17
2019-03-12T10:01:22.769Z,19.40
2019-03-12T10:04:44.238Z,13.13
2019-03-12T10:07:54.589Z,14.43
2019-03-12T10:11:04.728Z,14.43
2019-03-12T10:14:34.374Z,14.57
2019-03-12T10:17:56.196Z,14.00
2019-03-12T10:21:19.227Z,20.80
2019-03-12T10:24:54.160Z,13.87
2019-03-12T10:28:17.050Z,15.43
2019-03-12T10:31:55.346Z,16.20
2019-03-12T10:35:14.864Z,17.40
2019-03-12T10:39:02.375Z,19.10
2019-03-12T10:42:13.329Z,13.63
2019-03-12T10:45:22.061Z,13.50
2019-03-12T10:48:26.162Z,10.00
2019-03-12T10:51:30.254Z,10.57
2019-03-12T10:54:34.077Z,12.73
2019-03-12T10:57:38.012Z,15.93
2019-03-12T11:00:42.064Z,16.27
2019-03-12T11:03:45.957Z,11.90
2019-03-12T11:06:49.937Z,13.00
2019-03-12T11:09:53.783Z,7.53
2019-03-12T11:12:57.586Z,8.77
2019-03-12T11:16:01.418Z,7.77
2019-03-12T11:19:05.394Z,9.97
2019-03-12T11:22:09.361Z,9.07
2019-03-12T11:25:26.032Z,14.60
2019-03-12T11:28:18.995Z,11.63
2019-03-12T11:31:22.990Z,9.97
2019-03-12T11:34:26.884Z,12.90
2019-03-12T11:37:30.769Z,14.87
2019-03-12T11:40:34.647Z,11.40
2019-03-12T11:43:38.540Z,10.37
2019-03-12T11:46:45.743Z,13.07
2019-03-12T11:49:48.017Z,12.00
2019-03-12T11:52:55.483Z,9.67
2019-03-12T11:55:57.576Z,12.87
2019-03-12T11:59:01.469Z,12.67
2019-03-12T12:02:05.883Z,12.10
2019-03-12T12:05:09.898Z,14.83
2019-03-12T12:08:13.737Z,10.00
2019-03-12T12:11:17.701Z,12.20
2019-03-12T12:14:21.753Z,11.13
2019-03-12T12:17:25.578Z,14.67
2019-03-12T12:20:30.547Z,13.30
2019-03-12T12:23:34.567Z,8.97
2019-03-12T12:26:38.457Z,8.50
2019-03-12T12:29:42.255Z,9.03
2019-03-12T12:32:46.176Z,12.50
2019-03-12T12:35:49.977Z,13.63
2019-03-12T12:38:53.868Z,12.40
2019-03-12T12:41:57.769Z,14.37
2019-03-12T12:45:01.633Z,16.27
2019-03-12T12:48:05.552Z,15.80
2019-03-12T12:51:09.358Z,11.77
2019-03-12T12:54:13.160Z,13.30
2019-03-12T12:57:16.968Z,18.20
2019-03-12T13:00:21.436Z,14.87
2019-03-12T13:03:25.309Z,15.37
2019-03-12T13:06:29.183Z,20.07
2019-03-12T13:09:33.083Z,16.73
2019-03-12T13:12:36.975Z,13.20
2019-03-12T13:15:40.858Z,14.50
2019-03-12T13:18:44.729Z,16.67
2019-03-12T13:21:48.649Z,14.00
2019-03-12T13:24:52.454Z,13.90
2019-03-12T13:27:56.348Z,12.60
2019-03-12T13:31:00.212Z,13.77
2019-03-12T13:34:04.200Z,13.60
2019-03-12T13:37:08.086Z,14.77
2019-03-12T13:40:13.620Z,13.67
2019-03-12T13:43:17.513Z,15.27
2019-03-12T13:46:21.330Z,18.30
2019-03-12T13:49:25.136Z,14.03
2019-03-12T13:52:29.089Z,11.57
2019-03-12T13:55:33.353Z,16.30
2019-03-12T13:58:37.322Z,16.87
2019-03-12T14:01:41.238Z,21.23
2019-03-12T14:04:45.041Z,18.27
2019-03-12T14:07:49.008Z,16.67
2019-03-12T14:10:52.794Z,18.80
2019-03-12T14:13:56.668Z,14.37
2019-03-12T14:17:00.619Z,12.27
2019-03-12T14:20:28.021Z,22.60
2019-03-12T14:23:40.524Z,15.67
2019-03-12T14:26:44.312Z,14.23
2019-03-12T14:29:48.202Z,14.50
2019-03-12T14:32:52.052Z,13.17
2019-03-12T14:35:55.945Z,17.23
2019-03-12T14:38:59.917Z,18.27
2019-03-12T14:42:03.845Z,18.47
2019-03-12T14:45:11.855Z,15.83
2019-03-12T14:48:37.721Z,15.70
2019-03-12T14:51:56.849Z,16.30
2019-03-12T14:55:00.664Z,13.20
2019-03-12T14:58:04.571Z,12.40
2019-03-12T15:01:08.519Z,19.77
2019-03-12T15:04:14.861Z,14.57
2019-03-12T15:07:18.615Z,19.93
2019-03-12T15:10:22.559Z,12.53
2019-03-12T15:13:26.373Z,12.23
2019-03-12T15:16:30.200Z,15.00
2019-03-12T15:19:34.028Z,13.60
2019-03-12T15:22:37.866Z,14.37
2019-03-12T15:25:41.721Z,16.93
2019-03-12T15:28:45.535Z,11.30
2019-03-12T15:31:49.411Z,15.57
2019-03-12T15:34:53.277Z,11.90
2019-03-12T15:37:57.127Z,12.40
2019-03-12T15:41:00.940Z,13.83
2019-03-12T15:44:04.915Z,11.53
2019-03-12T15:47:09.008Z,12.43
2019-03-12T15:50:13.339Z,11.20
2019-03-12T15:53:17.314Z,13.13
2019-03-12T15:56:21.121Z,11.73
2019-03-12T15:59:24.951Z,14.30
2019-03-12T16:02:28.833Z,8.43
2019-03-12T16:05:32.649Z,13.17
2019-03-12T16:08:36.465Z,10.00
2019-03-12T16:11:40.279Z,15.07
2019-03-12T16:14:44.124Z,10.43
2019-03-12T16:17:48.011Z,9.90
2019-03-12T16:20:52.003Z,10.67
2019-03-12T16:23:55.798Z,8.60
2019-03-12T16:27:02.842Z,11.60
2019-03-12T16:30:06.564Z,10.23
2019-03-12T16:33:10.458Z,13.27
2019-03-12T16:36:14.373Z,11.27
2019-03-12T16:39:18.182Z,9.73
2019-03-12T16:42:34.301Z,13.43
2019-03-12T16:45:27.667Z,13.03
2019-03-12T16:48:31.448Z,12.60
2019-03-12T16:51:35.361Z,11.43
2019-03-12T16:54:39.191Z,12.13
2019-03-12T16:57:43.199Z,13.63
2019-03-12T17:00:47.057Z,12.70
2019-03-12T17:03:51.047Z,10.43
2019-03-12T17:06:54.958Z,11.93
2019-03-12T17:09:58.772Z,9.83
2019-03-12T17:13:02.585Z,13.10
2019-03-12T17:16:06.400Z,9.90
2019-03-12T17:19:10.219Z,11.80
2019-03-12T17:22:14.093Z,11.53
2019-03-12T17:25:18.005Z,10.97
2019-03-12T17:28:21.807Z,12.73
2019-03-12T17:31:25.613Z,9.23
2019-03-12T17:34:35.788Z,12.77
2019-03-12T17:37:34.962Z,8.70
2019-03-12T17:40:38.845Z,8.13
2019-03-12T17:43:42.656Z,9.23
2019-03-12T17:46:47.133Z,9.67
2019-03-12T17:49:50.910Z,12.03
2019-03-12T17:52:54.741Z,11.73
2019-03-12T17:55:58.551Z,11.53
2019-03-12T17:59:02.530Z,10.90
2019-03-12T18:02:06.590Z,10.63
2019-03-12T18:05:10.905Z,10.60
2019-03-12T18:08:14.717Z,12.73
2019-03-12T18:11:18.649Z,11.17
2019-03-12T18:14:22.456Z,12.77
2019-03-12T18:17:26.276Z,13.87
2019-03-12T18:20:30.099Z,13.23
2019-03-12T18:23:33.925Z,10.83
2019-03-12T18:26:37.736Z,9.40
2019-03-12T18:29:41.596Z,8.83
2019-03-12T18:32:45.538Z,9.47
2019-03-12T18:35:49.375Z,14.40
2019-03-12T18:38:53.252Z,12.70
2019-03-12T18:41:57.045Z,15.93
2019-03-12T18:45:00.830Z,13.90
2019-03-12T18:48:04.856Z,13.47
2019-03-12T18:51:08.635Z,8.80
2019-03-12T18:54:12.439Z,12.73
2019-03-12T18:57:16.252Z,10.03
2019-03-12T19:00:20.069Z,8.87
2019-03-12T19:03:23.868Z,13.73
2019-03-12T19:06:27.696Z,8.67
2019-03-12T19:09:31.507Z,9.93
2019-03-12T19:12:35.311Z,9.97
2019-03-12T19:15:39.260Z,12.50
2019-03-12T19:18:43.275Z,13.37
2019-03-12T19:21:47.169Z,8.53
2019-03-12T19:24:51.023Z,9.40
2019-03-12T19:27:59.850Z,6.13
2019-03-12T19:31:14.157Z,10.70
2019-03-12T19:34:24.713Z,8.33
2019-03-12T19:37:28.609Z,7.90
2019-03-12T19:40:32.998Z,10.80
2019-03-12T19:43:36.885Z,10.57
2019-03-12T19:46:40.854Z,12.50
2019-03-12T19:49:44.682Z,8.80
2019-03-12T19:52:48.622Z,9.33
2019-03-12T19:55:52.555Z,8.00
2019-03-12T19:58:56.431Z,6.87
2019-03-12T20:02:15.257Z,7.27
2019-03-12T20:05:09.443Z,9.03
2019-03-12T20:08:13.237Z,10.53
2019-03-12T20:11:54.639Z,10.30
2019-03-12T20:15:44.000Z,7.73
2019-03-12T20:19:56.251Z,9.20
2019-03-12T20:23:30.255Z,10.30
2019-03-12T20:27:05.173Z,9.13
2019-03-12T20:30:52.468Z,10.37
2019-03-12T20:34:40.355Z,8.90
2019-03-12T20:38:30.378Z,10.23
2019-03-12T20:42:29.824Z,11.23
2019-03-12T20:46:09.815Z,9.07
2019-03-12T20:49:47.829Z,6.90
2019-03-12T20:53:34.657Z,7.43
2019-03-12T20:57:25.909Z,9.77
2019-03-12T21:01:35.250Z,10.37
2019-03-12T21:05:29.161Z,12.20
2019-03-12T21:09:10.088Z,12.00
2019-03-12T21:13:10.415Z,6.00
2019-03-12T21:16:52.513Z,13.27
2019-03-12T21:20:23.213Z,6.67
2019-03-12T21:23:49.794Z,7.93
2019-03-12T21:27:24.850Z,6.57
2019-03-12T21:30:28.783Z,8.67
2019-03-12T21:33:32.567Z,9.60
2019-03-12T21:36:36.455Z,7.37
2019-03-12T21:39:54.064Z,6.13
2019-03-12T21:42:45.928Z,8.60
2019-03-12T21:45:49.894Z,8.27
2019-03-12T21:48:53.774Z,7.77
2019-03-12T21:51:57.571Z,6.23
2019-03-12T21:55:01.413Z,9.50
2019-03-12T21:58:05.341Z,10.10
2019-03-12T22:01:09.253Z,9.80
2019-03-12T22:04:13.076Z,7.17
2019-03-12T22:07:16.870Z,8.90
2019-03-12T22:10:20.746Z,6.13
2019-03-12T22:13:24.536Z,12.13
2019-03-12T22:16:28.345Z,7.20
2019-03-12T22:19:32.141Z,8.50
2019-03-12T22:23:00.345Z,6.73
2019-03-12T22:26:04.224Z,9.77
2019-03-12T22:29:08.028Z,10.00
2019-03-12T22:32:12.019Z,9.97
2019-03-12T22:35:15.830Z,9.20
2019-03-12T22:38:19.657Z,12.67
2019-03-12T22:41:23.435Z,9.90
2019-03-12T22:44:27.259Z,9.87
2019-03-12T22:47:31.116Z,10.60
2019-03-12T22:50:34.947Z,12.33
2019-03-12T22:53:38.801Z,7.70
2019-03-12T22:56:42.898Z,11.50
2019-03-12T22:59:46.697Z,10.90
2019-03-12T23:02:50.520Z,8.93
2019-03-12T23:05:54.468Z,7.07
2019-03-12T23:08:58.534Z,7.87
2019-03-12T23:12:02.505Z,12.87
2019-03-12T23:15:07.983Z,11.57
2019-03-12T23:18:11.946Z,6.70
2019-03-12T23:21:15.907Z,5.10
2019-03-12T23:24:19.714Z,5.57
2019-03-12T23:27:23.523Z,3.87
2019-03-12T23:30:28.895Z,5.00
2019-03-12T23:33:32.959Z,7.83
2019-03-12T23:36:36.878Z,7.13
2019-03-12T23:39:40.737Z,5.60
2019-03-12T23:42:44.784Z,5.53
2019-03-12T23:45:48.653Z,7.17
2019-03-12T23:48:52.449Z,8.20
2019-03-12T23:51:56.606Z,5.50
2019-03-12T23:55:00.471Z,7.57
2019-03-12T23:58:04.473Z,8.00
